
<gpx xmlns="http://www.topografix.com/GPX/1/1" xmlns:gpxx="http://www.garmin.com/xmlschemas/GpxExtensions/v3" xmlns:xsi="http://www.w3.org/2001/XMLSchema-instance" version="1.1" creator="Adze - https://getadze.com/" xsi:schemaLocation="http://www.topografix.com/GPX/1/1 http://www.topografix.com/GPX/1/1/gpx.xsd http://www.garmin.com/xmlschemas/GpxExtensions/v3 http://www.garmin.com/xmlschemas/GpxExtensionsv3.xsd">
    <metadata>
        <name>Untitled Document</name>
        <link href="http://www.garmin.com"></link>
        <time>2018-03-08T03:34:44.393Z</time>
    </metadata>
    <wpt lon="100.848485" lat="15.007295">
        <ele>135.000000</ele>
        <name>Narai Hills Resort</name>
        <cmt>30-JAN-09 16:17:52</cmt>
        <desc>30-JAN-09 16:17:52</desc>
        <sym>City Hall</sym>
        <extensions>
            <gpxx:WaypointExtension xmlns:gpxx="http://www.garmin.com/xmlschemas/GpxExtensions/v3">
                <gpxx:DisplayMode>SymbolOnly</gpxx:DisplayMode>
            </gpxx:WaypointExtension>
        </extensions>
    </wpt>
    <wpt lon="100.855419" lat="15.064775">
        <ele>73.000000</ele>
        <name>January 2009 - Sunday water</name>
        <cmt>01-FEB-09 11:18:09</cmt>
        <desc>01-FEB-09 11:18:09</desc>
        <sym>Drinking Water</sym>
        <extensions>
            <gpxx:WaypointExtension xmlns:gpxx="http://www.garmin.com/xmlschemas/GpxExtensions/v3">
                <gpxx:DisplayMode>SymbolOnly</gpxx:DisplayMode>
            </gpxx:WaypointExtension>
        </extensions>
    </wpt>
    <trk>
        <name>January 2009 - Sunday</name>
        <extensions>
            <gpxx:TrackExtension xmlns:gpxx="http://www.garmin.com/xmlschemas/GpxExtensions/v3">
                <gpxx:DisplayColor>Green</gpxx:DisplayColor>
            </gpxx:TrackExtension>
        </extensions>
        <trkseg>
            <trkpt lon="100.849294" lat="15.007197">
                <ele>140.970459</ele>
                <time>2009-02-01T03:00:17Z</time>
            </trkpt>
            <trkpt lon="100.849251" lat="15.007283">
                <ele>140.970459</ele>
                <time>2009-02-01T03:00:23Z</time>
            </trkpt>
            <trkpt lon="100.849164" lat="15.007370">
                <ele>140.970459</ele>
                <time>2009-02-01T03:00:28Z</time>
            </trkpt>
            <trkpt lon="100.848937" lat="15.007145">
                <ele>139.047852</ele>
                <time>2009-02-01T03:00:38Z</time>
            </trkpt>
            <trkpt lon="100.849022" lat="15.006983">
                <ele>138.567261</ele>
                <time>2009-02-01T03:00:42Z</time>
            </trkpt>
            <trkpt lon="100.849187" lat="15.006813">
                <ele>138.567261</ele>
                <time>2009-02-01T03:00:47Z</time>
            </trkpt>
            <trkpt lon="100.849269" lat="15.006583">
                <ele>138.567261</ele>
                <time>2009-02-01T03:00:52Z</time>
            </trkpt>
            <trkpt lon="100.849210" lat="15.005987">
                <ele>139.047852</ele>
                <time>2009-02-01T03:01:05Z</time>
            </trkpt>
            <trkpt lon="100.849279" lat="15.005543">
                <ele>140.489868</ele>
                <time>2009-02-01T03:01:22Z</time>
            </trkpt>
            <trkpt lon="100.849351" lat="15.005130">
                <ele>144.815796</ele>
                <time>2009-02-01T03:01:40Z</time>
            </trkpt>
            <trkpt lon="100.849338" lat="15.004785">
                <ele>149.622314</ele>
                <time>2009-02-01T03:01:59Z</time>
            </trkpt>
            <trkpt lon="100.849258" lat="15.004405">
                <ele>152.986939</ele>
                <time>2009-02-01T03:02:20Z</time>
            </trkpt>
            <trkpt lon="100.849157" lat="15.004091">
                <ele>155.390259</ele>
                <time>2009-02-01T03:02:38Z</time>
            </trkpt>
            <trkpt lon="100.849074" lat="15.003720">
                <ele>157.793579</ele>
                <time>2009-02-01T03:02:57Z</time>
            </trkpt>
            <trkpt lon="100.849138" lat="15.003378">
                <ele>160.196899</ele>
                <time>2009-02-01T03:03:13Z</time>
            </trkpt>
            <trkpt lon="100.849223" lat="15.003088">
                <ele>163.080811</ele>
                <time>2009-02-01T03:03:29Z</time>
            </trkpt>
            <trkpt lon="100.849335" lat="15.002628">
                <ele>166.445312</ele>
                <time>2009-02-01T03:03:48Z</time>
            </trkpt>
            <trkpt lon="100.849538" lat="15.002222">
                <ele>168.368042</ele>
                <time>2009-02-01T03:04:06Z</time>
            </trkpt>
            <trkpt lon="100.849872" lat="15.002394">
                <ele>165.964722</ele>
                <time>2009-02-01T03:04:15Z</time>
            </trkpt>
            <trkpt lon="100.850710" lat="15.002740">
                <ele>158.274170</ele>
                <time>2009-02-01T03:04:28Z</time>
            </trkpt>
            <trkpt lon="100.852098" lat="15.003114">
                <ele>142.893066</ele>
                <time>2009-02-01T03:04:43Z</time>
            </trkpt>
            <trkpt lon="100.852562" lat="15.003240">
                <ele>138.567261</ele>
                <time>2009-02-01T03:04:49Z</time>
            </trkpt>
            <trkpt lon="100.852697" lat="15.003421">
                <ele>136.644653</ele>
                <time>2009-02-01T03:04:53Z</time>
            </trkpt>
            <trkpt lon="100.852970" lat="15.004383">
                <ele>129.434692</ele>
                <time>2009-02-01T03:05:04Z</time>
            </trkpt>
            <trkpt lon="100.853138" lat="15.004879">
                <ele>127.511963</ele>
                <time>2009-02-01T03:05:09Z</time>
            </trkpt>
            <trkpt lon="100.853397" lat="15.005187">
                <ele>126.550659</ele>
                <time>2009-02-01T03:05:13Z</time>
            </trkpt>
            <trkpt lon="100.854521" lat="15.006222">
                <ele>115.495605</ele>
                <time>2009-02-01T03:05:27Z</time>
            </trkpt>
            <trkpt lon="100.855093" lat="15.007085">
                <ele>112.130981</ele>
                <time>2009-02-01T03:05:40Z</time>
            </trkpt>
            <trkpt lon="100.855173" lat="15.007289">
                <ele>111.169556</ele>
                <time>2009-02-01T03:05:48Z</time>
            </trkpt>
            <trkpt lon="100.855053" lat="15.007390">
                <ele>110.688843</ele>
                <time>2009-02-01T03:05:53Z</time>
            </trkpt>
            <trkpt lon="100.854855" lat="15.007679">
                <ele>111.650269</ele>
                <time>2009-02-01T03:06:01Z</time>
            </trkpt>
            <trkpt lon="100.854652" lat="15.008435">
                <ele>111.650269</ele>
                <time>2009-02-01T03:06:19Z</time>
            </trkpt>
            <trkpt lon="100.854625" lat="15.008525">
                <ele>111.650269</ele>
                <time>2009-02-01T03:06:21Z</time>
            </trkpt>
            <trkpt lon="100.854479" lat="15.008843">
                <ele>110.208252</ele>
                <time>2009-02-01T03:06:28Z</time>
            </trkpt>
            <trkpt lon="100.854330" lat="15.008999">
                <ele>109.727661</ele>
                <time>2009-02-01T03:06:32Z</time>
            </trkpt>
            <trkpt lon="100.853601" lat="15.009408">
                <ele>105.882446</ele>
                <time>2009-02-01T03:06:47Z</time>
            </trkpt>
            <trkpt lon="100.853543" lat="15.009607">
                <ele>106.843628</ele>
                <time>2009-02-01T03:06:53Z</time>
            </trkpt>
            <trkpt lon="100.853696" lat="15.010081">
                <ele>105.882446</ele>
                <time>2009-02-01T03:07:03Z</time>
            </trkpt>
            <trkpt lon="100.853696" lat="15.010942">
                <ele>104.921020</ele>
                <time>2009-02-01T03:07:19Z</time>
            </trkpt>
            <trkpt lon="100.854080" lat="15.011617">
                <ele>102.517700</ele>
                <time>2009-02-01T03:07:33Z</time>
            </trkpt>
            <trkpt lon="100.854224" lat="15.011867">
                <ele>101.556397</ele>
                <time>2009-02-01T03:07:38Z</time>
            </trkpt>
            <trkpt lon="100.854401" lat="15.012059">
                <ele>99.633789</ele>
                <time>2009-02-01T03:07:43Z</time>
            </trkpt>
            <trkpt lon="100.855081" lat="15.012467">
                <ele>96.749878</ele>
                <time>2009-02-01T03:07:58Z</time>
            </trkpt>
            <trkpt lon="100.855671" lat="15.012820">
                <ele>92.904541</ele>
                <time>2009-02-01T03:08:12Z</time>
            </trkpt>
            <trkpt lon="100.855704" lat="15.012843">
                <ele>92.423950</ele>
                <time>2009-02-01T03:08:13Z</time>
            </trkpt>
            <trkpt lon="100.855799" lat="15.012936">
                <ele>91.462524</ele>
                <time>2009-02-01T03:08:17Z</time>
            </trkpt>
            <trkpt lon="100.855826" lat="15.012962">
                <ele>91.462524</ele>
                <time>2009-02-01T03:08:20Z</time>
            </trkpt>
            <trkpt lon="100.855897" lat="15.012844">
                <ele>90.981934</ele>
                <time>2009-02-01T03:08:31Z</time>
            </trkpt>
            <trkpt lon="100.856031" lat="15.012567">
                <ele>90.981934</ele>
                <time>2009-02-01T03:08:48Z</time>
            </trkpt>
            <trkpt lon="100.856070" lat="15.012552">
                <ele>90.981934</ele>
                <time>2009-02-01T03:08:51Z</time>
            </trkpt>
            <trkpt lon="100.856268" lat="15.012692">
                <ele>89.539917</ele>
                <time>2009-02-01T03:09:04Z</time>
            </trkpt>
            <trkpt lon="100.856473" lat="15.012834">
                <ele>89.059326</ele>
                <time>2009-02-01T03:09:16Z</time>
            </trkpt>
            <trkpt lon="100.856524" lat="15.012985">
                <ele>88.578735</ele>
                <time>2009-02-01T03:09:30Z</time>
            </trkpt>
            <trkpt lon="100.856529" lat="15.012950">
                <ele>88.578735</ele>
                <time>2009-02-01T03:09:38Z</time>
            </trkpt>
            <trkpt lon="100.856501" lat="15.012799">
                <ele>89.539917</ele>
                <time>2009-02-01T03:09:51Z</time>
            </trkpt>
            <trkpt lon="100.856506" lat="15.012774">
                <ele>89.539917</ele>
                <time>2009-02-01T03:09:52Z</time>
            </trkpt>
            <trkpt lon="100.856688" lat="15.012719">
                <ele>89.539917</ele>
                <time>2009-02-01T03:09:59Z</time>
            </trkpt>
            <trkpt lon="100.857162" lat="15.012647">
                <ele>91.462524</ele>
                <time>2009-02-01T03:10:12Z</time>
            </trkpt>
            <trkpt lon="100.857603" lat="15.012573">
                <ele>90.981934</ele>
                <time>2009-02-01T03:10:25Z</time>
            </trkpt>
            <trkpt lon="100.857775" lat="15.012559">
                <ele>90.020630</ele>
                <time>2009-02-01T03:10:29Z</time>
            </trkpt>
            <trkpt lon="100.858673" lat="15.012386">
                <ele>88.098022</ele>
                <time>2009-02-01T03:10:49Z</time>
            </trkpt>
            <trkpt lon="100.859409" lat="15.012243">
                <ele>85.213989</ele>
                <time>2009-02-01T03:11:05Z</time>
            </trkpt>
            <trkpt lon="100.859652" lat="15.012472">
                <ele>84.733398</ele>
                <time>2009-02-01T03:11:16Z</time>
            </trkpt>
            <trkpt lon="100.859709" lat="15.013019">
                <ele>86.175293</ele>
                <time>2009-02-01T03:11:32Z</time>
            </trkpt>
            <trkpt lon="100.859720" lat="15.013091">
                <ele>86.656006</ele>
                <time>2009-02-01T03:11:34Z</time>
            </trkpt>
            <trkpt lon="100.859893" lat="15.013132">
                <ele>88.098022</ele>
                <time>2009-02-01T03:11:43Z</time>
            </trkpt>
            <trkpt lon="100.859902" lat="15.013105">
                <ele>88.098022</ele>
                <time>2009-02-01T03:11:44Z</time>
            </trkpt>
            <trkpt lon="100.860023" lat="15.012410">
                <ele>86.175293</ele>
                <time>2009-02-01T03:11:59Z</time>
            </trkpt>
            <trkpt lon="100.860195" lat="15.011378">
                <ele>85.694580</ele>
                <time>2009-02-01T03:12:16Z</time>
            </trkpt>
            <trkpt lon="100.860442" lat="15.010590">
                <ele>87.617188</ele>
                <time>2009-02-01T03:12:33Z</time>
            </trkpt>
            <trkpt lon="100.860908" lat="15.009686">
                <ele>87.136597</ele>
                <time>2009-02-01T03:12:53Z</time>
            </trkpt>
            <trkpt lon="100.861423" lat="15.008736">
                <ele>88.578735</ele>
                <time>2009-02-01T03:13:14Z</time>
            </trkpt>
            <trkpt lon="100.861669" lat="15.008281">
                <ele>90.020630</ele>
                <time>2009-02-01T03:13:31Z</time>
            </trkpt>
            <trkpt lon="100.861676" lat="15.008264">
                <ele>90.020630</ele>
                <time>2009-02-01T03:13:32Z</time>
            </trkpt>
            <trkpt lon="100.861717" lat="15.008212">
                <ele>92.904541</ele>
                <time>2009-02-01T03:13:49Z</time>
            </trkpt>
            <trkpt lon="100.861726" lat="15.008217">
                <ele>93.865845</ele>
                <time>2009-02-01T03:15:15Z</time>
            </trkpt>
            <trkpt lon="100.862003" lat="15.008502">
                <ele>91.462524</ele>
                <time>2009-02-01T03:15:26Z</time>
            </trkpt>
            <trkpt lon="100.862316" lat="15.008812">
                <ele>89.539917</ele>
                <time>2009-02-01T03:15:36Z</time>
            </trkpt>
            <trkpt lon="100.862565" lat="15.008878">
                <ele>88.578735</ele>
                <time>2009-02-01T03:15:42Z</time>
            </trkpt>
            <trkpt lon="100.863190" lat="15.008757">
                <ele>87.136597</ele>
                <time>2009-02-01T03:15:58Z</time>
            </trkpt>
            <trkpt lon="100.863374" lat="15.008691">
                <ele>86.175293</ele>
                <time>2009-02-01T03:16:03Z</time>
            </trkpt>
            <trkpt lon="100.863851" lat="15.008520">
                <ele>85.694580</ele>
                <time>2009-02-01T03:16:16Z</time>
            </trkpt>
            <trkpt lon="100.864343" lat="15.008358">
                <ele>85.694580</ele>
                <time>2009-02-01T03:16:28Z</time>
            </trkpt>
            <trkpt lon="100.864426" lat="15.008338">
                <ele>85.694580</ele>
                <time>2009-02-01T03:16:30Z</time>
            </trkpt>
            <trkpt lon="100.865172" lat="15.008042">
                <ele>85.694580</ele>
                <time>2009-02-01T03:16:49Z</time>
            </trkpt>
            <trkpt lon="100.865889" lat="15.007805">
                <ele>86.175293</ele>
                <time>2009-02-01T03:17:09Z</time>
            </trkpt>
            <trkpt lon="100.866269" lat="15.007861">
                <ele>87.136597</ele>
                <time>2009-02-01T03:17:20Z</time>
            </trkpt>
            <trkpt lon="100.866611" lat="15.008129">
                <ele>87.617188</ele>
                <time>2009-02-01T03:17:33Z</time>
            </trkpt>
            <trkpt lon="100.866875" lat="15.008337">
                <ele>89.059326</ele>
                <time>2009-02-01T03:17:45Z</time>
            </trkpt>
            <trkpt lon="100.867086" lat="15.008650">
                <ele>89.539917</ele>
                <time>2009-02-01T03:17:59Z</time>
            </trkpt>
            <trkpt lon="100.867191" lat="15.008837">
                <ele>88.098022</ele>
                <time>2009-02-01T03:18:05Z</time>
            </trkpt>
            <trkpt lon="100.867316" lat="15.008869">
                <ele>88.578735</ele>
                <time>2009-02-01T03:18:09Z</time>
            </trkpt>
            <trkpt lon="100.867899" lat="15.008756">
                <ele>86.656006</ele>
                <time>2009-02-01T03:18:25Z</time>
            </trkpt>
            <trkpt lon="100.868523" lat="15.008595">
                <ele>87.617188</ele>
                <time>2009-02-01T03:18:42Z</time>
            </trkpt>
            <trkpt lon="100.868740" lat="15.008534">
                <ele>89.539917</ele>
                <time>2009-02-01T03:18:51Z</time>
            </trkpt>
            <trkpt lon="100.869149" lat="15.008931">
                <ele>88.098022</ele>
                <time>2009-02-01T03:19:06Z</time>
            </trkpt>
            <trkpt lon="100.869605" lat="15.009412">
                <ele>90.020630</ele>
                <time>2009-02-01T03:19:25Z</time>
            </trkpt>
            <trkpt lon="100.869918" lat="15.009711">
                <ele>91.943237</ele>
                <time>2009-02-01T03:19:41Z</time>
            </trkpt>
            <trkpt lon="100.870295" lat="15.010105">
                <ele>93.865845</ele>
                <time>2009-02-01T03:19:59Z</time>
            </trkpt>
            <trkpt lon="100.870530" lat="15.010571">
                <ele>95.307739</ele>
                <time>2009-02-01T03:20:14Z</time>
            </trkpt>
            <trkpt lon="100.870763" lat="15.011187">
                <ele>93.865845</ele>
                <time>2009-02-01T03:20:26Z</time>
            </trkpt>
            <trkpt lon="100.870664" lat="15.012104">
                <ele>92.904541</ele>
                <time>2009-02-01T03:20:41Z</time>
            </trkpt>
            <trkpt lon="100.870371" lat="15.013048">
                <ele>91.943237</ele>
                <time>2009-02-01T03:20:58Z</time>
            </trkpt>
            <trkpt lon="100.870228" lat="15.014003">
                <ele>92.423950</ele>
                <time>2009-02-01T03:21:17Z</time>
            </trkpt>
            <trkpt lon="100.870238" lat="15.014624">
                <ele>95.788452</ele>
                <time>2009-02-01T03:21:33Z</time>
            </trkpt>
            <trkpt lon="100.870259" lat="15.015016">
                <ele>97.711182</ele>
                <time>2009-02-01T03:21:48Z</time>
            </trkpt>
            <trkpt lon="100.870425" lat="15.015208">
                <ele>96.749878</ele>
                <time>2009-02-01T03:21:58Z</time>
            </trkpt>
            <trkpt lon="100.870532" lat="15.015668">
                <ele>96.749878</ele>
                <time>2009-02-01T03:22:10Z</time>
            </trkpt>
            <trkpt lon="100.870841" lat="15.016844">
                <ele>96.749878</ele>
                <time>2009-02-01T03:22:35Z</time>
            </trkpt>
            <trkpt lon="100.870845" lat="15.016891">
                <ele>96.749878</ele>
                <time>2009-02-01T03:22:36Z</time>
            </trkpt>
            <trkpt lon="100.870807" lat="15.017078">
                <ele>97.230469</ele>
                <time>2009-02-01T03:22:40Z</time>
            </trkpt>
            <trkpt lon="100.870712" lat="15.017824">
                <ele>98.672485</ele>
                <time>2009-02-01T03:22:56Z</time>
            </trkpt>
            <trkpt lon="100.870833" lat="15.018774">
                <ele>99.153076</ele>
                <time>2009-02-01T03:23:17Z</time>
            </trkpt>
            <trkpt lon="100.870868" lat="15.019732">
                <ele>98.191895</ele>
                <time>2009-02-01T03:23:37Z</time>
            </trkpt>
            <trkpt lon="100.870891" lat="15.020771">
                <ele>96.749878</ele>
                <time>2009-02-01T03:23:57Z</time>
            </trkpt>
            <trkpt lon="100.870896" lat="15.021918">
                <ele>96.749878</ele>
                <time>2009-02-01T03:24:19Z</time>
            </trkpt>
            <trkpt lon="100.870909" lat="15.023160">
                <ele>95.788452</ele>
                <time>2009-02-01T03:24:41Z</time>
            </trkpt>
            <trkpt lon="100.870922" lat="15.024297">
                <ele>95.307739</ele>
                <time>2009-02-01T03:25:02Z</time>
            </trkpt>
            <trkpt lon="100.870930" lat="15.025190">
                <ele>96.269287</ele>
                <time>2009-02-01T03:25:21Z</time>
            </trkpt>
            <trkpt lon="100.870929" lat="15.026032">
                <ele>101.075684</ele>
                <time>2009-02-01T03:25:41Z</time>
            </trkpt>
            <trkpt lon="100.870947" lat="15.026705">
                <ele>104.440430</ele>
                <time>2009-02-01T03:26:00Z</time>
            </trkpt>
            <trkpt lon="100.870953" lat="15.027591">
                <ele>105.401733</ele>
                <time>2009-02-01T03:26:23Z</time>
            </trkpt>
            <trkpt lon="100.870983" lat="15.028760">
                <ele>104.440430</ele>
                <time>2009-02-01T03:26:47Z</time>
            </trkpt>
            <trkpt lon="100.870972" lat="15.029672">
                <ele>104.921020</ele>
                <time>2009-02-01T03:27:06Z</time>
            </trkpt>
            <trkpt lon="100.871082" lat="15.030370">
                <ele>107.805054</ele>
                <time>2009-02-01T03:27:25Z</time>
            </trkpt>
            <trkpt lon="100.871262" lat="15.030691">
                <ele>111.650269</ele>
                <time>2009-02-01T03:27:42Z</time>
            </trkpt>
            <trkpt lon="100.871537" lat="15.031028">
                <ele>117.418213</ele>
                <time>2009-02-01T03:28:02Z</time>
            </trkpt>
            <trkpt lon="100.871856" lat="15.031241">
                <ele>118.860107</ele>
                <time>2009-02-01T03:28:22Z</time>
            </trkpt>
            <trkpt lon="100.871903" lat="15.031280">
                <ele>118.860107</ele>
                <time>2009-02-01T03:28:26Z</time>
            </trkpt>
            <trkpt lon="100.871905" lat="15.031396">
                <ele>118.860107</ele>
                <time>2009-02-01T03:28:32Z</time>
            </trkpt>
            <trkpt lon="100.871990" lat="15.031789">
                <ele>117.898804</ele>
                <time>2009-02-01T03:28:48Z</time>
            </trkpt>
            <trkpt lon="100.872406" lat="15.032110">
                <ele>117.898804</ele>
                <time>2009-02-01T03:29:04Z</time>
            </trkpt>
            <trkpt lon="100.872614" lat="15.032457">
                <ele>116.937500</ele>
                <time>2009-02-01T03:29:14Z</time>
            </trkpt>
            <trkpt lon="100.872667" lat="15.032990">
                <ele>113.572998</ele>
                <time>2009-02-01T03:29:29Z</time>
            </trkpt>
            <trkpt lon="100.872679" lat="15.033069">
                <ele>113.572998</ele>
                <time>2009-02-01T03:29:31Z</time>
            </trkpt>
            <trkpt lon="100.872946" lat="15.033415">
                <ele>111.650269</ele>
                <time>2009-02-01T03:29:41Z</time>
            </trkpt>
            <trkpt lon="100.873011" lat="15.033477">
                <ele>111.169556</ele>
                <time>2009-02-01T03:29:43Z</time>
            </trkpt>
            <trkpt lon="100.873131" lat="15.033663">
                <ele>110.688843</ele>
                <time>2009-02-01T03:29:48Z</time>
            </trkpt>
            <trkpt lon="100.873160" lat="15.033912">
                <ele>113.572998</ele>
                <time>2009-02-01T03:30:03Z</time>
            </trkpt>
            <trkpt lon="100.873018" lat="15.034208">
                <ele>114.053589</ele>
                <time>2009-02-01T03:30:15Z</time>
            </trkpt>
            <trkpt lon="100.872657" lat="15.034621">
                <ele>114.053589</ele>
                <time>2009-02-01T03:30:31Z</time>
            </trkpt>
            <trkpt lon="100.872214" lat="15.035136">
                <ele>111.650269</ele>
                <time>2009-02-01T03:30:51Z</time>
            </trkpt>
            <trkpt lon="100.872165" lat="15.035510">
                <ele>111.169556</ele>
                <time>2009-02-01T03:31:02Z</time>
            </trkpt>
            <trkpt lon="100.872297" lat="15.036020">
                <ele>108.285645</ele>
                <time>2009-02-01T03:31:17Z</time>
            </trkpt>
            <trkpt lon="100.872684" lat="15.036215">
                <ele>106.843628</ele>
                <time>2009-02-01T03:31:31Z</time>
            </trkpt>
            <trkpt lon="100.872936" lat="15.036265">
                <ele>105.401733</ele>
                <time>2009-02-01T03:31:41Z</time>
            </trkpt>
            <trkpt lon="100.873211" lat="15.036447">
                <ele>105.882446</ele>
                <time>2009-02-01T03:31:52Z</time>
            </trkpt>
            <trkpt lon="100.873220" lat="15.036493">
                <ele>105.882446</ele>
                <time>2009-02-01T03:31:55Z</time>
            </trkpt>
            <trkpt lon="100.873309" lat="15.036781">
                <ele>107.805054</ele>
                <time>2009-02-01T03:32:11Z</time>
            </trkpt>
            <trkpt lon="100.873394" lat="15.037185">
                <ele>109.246948</ele>
                <time>2009-02-01T03:32:28Z</time>
            </trkpt>
            <trkpt lon="100.873503" lat="15.037646">
                <ele>109.727661</ele>
                <time>2009-02-01T03:32:45Z</time>
            </trkpt>
            <trkpt lon="100.873536" lat="15.038042">
                <ele>111.650269</ele>
                <time>2009-02-01T03:33:02Z</time>
            </trkpt>
            <trkpt lon="100.873574" lat="15.038563">
                <ele>112.130981</ele>
                <time>2009-02-01T03:33:23Z</time>
            </trkpt>
            <trkpt lon="100.873554" lat="15.038956">
                <ele>110.688843</ele>
                <time>2009-02-01T03:33:38Z</time>
            </trkpt>
            <trkpt lon="100.873410" lat="15.039157">
                <ele>110.688843</ele>
                <time>2009-02-01T03:33:48Z</time>
            </trkpt>
            <trkpt lon="100.873041" lat="15.039498">
                <ele>112.611572</ele>
                <time>2009-02-01T03:34:09Z</time>
            </trkpt>
            <trkpt lon="100.872772" lat="15.039803">
                <ele>114.053589</ele>
                <time>2009-02-01T03:34:27Z</time>
            </trkpt>
            <trkpt lon="100.872652" lat="15.040042">
                <ele>115.014893</ele>
                <time>2009-02-01T03:34:41Z</time>
            </trkpt>
            <trkpt lon="100.872643" lat="15.040408">
                <ele>117.898804</ele>
                <time>2009-02-01T03:34:58Z</time>
            </trkpt>
            <trkpt lon="100.872646" lat="15.040831">
                <ele>119.340820</ele>
                <time>2009-02-01T03:35:18Z</time>
            </trkpt>
            <trkpt lon="100.872634" lat="15.040858">
                <ele>121.263550</ele>
                <time>2009-02-01T03:35:36Z</time>
            </trkpt>
            <trkpt lon="100.872637" lat="15.040869">
                <ele>124.628052</ele>
                <time>2009-02-01T03:36:59Z</time>
            </trkpt>
            <trkpt lon="100.872627" lat="15.040858">
                <ele>123.666748</ele>
                <time>2009-02-01T03:37:46Z</time>
            </trkpt>
            <trkpt lon="100.872642" lat="15.040856">
                <ele>127.031372</ele>
                <time>2009-02-01T03:38:52Z</time>
            </trkpt>
            <trkpt lon="100.872638" lat="15.040871">
                <ele>117.898804</ele>
                <time>2009-02-01T03:42:22Z</time>
            </trkpt>
            <trkpt lon="100.872620" lat="15.040898">
                <ele>125.589355</ele>
                <time>2009-02-01T03:43:40Z</time>
            </trkpt>
            <trkpt lon="100.872500" lat="15.041065">
                <ele>123.186157</ele>
                <time>2009-02-01T03:43:59Z</time>
            </trkpt>
            <trkpt lon="100.872369" lat="15.041291">
                <ele>121.263550</ele>
                <time>2009-02-01T03:44:17Z</time>
            </trkpt>
            <trkpt lon="100.872151" lat="15.041605">
                <ele>123.186157</ele>
                <time>2009-02-01T03:44:33Z</time>
            </trkpt>
            <trkpt lon="100.871845" lat="15.041901">
                <ele>124.628052</ele>
                <time>2009-02-01T03:44:49Z</time>
            </trkpt>
            <trkpt lon="100.871813" lat="15.042368">
                <ele>123.186157</ele>
                <time>2009-02-01T03:45:06Z</time>
            </trkpt>
            <trkpt lon="100.871914" lat="15.042413">
                <ele>123.186157</ele>
                <time>2009-02-01T03:45:12Z</time>
            </trkpt>
            <trkpt lon="100.872317" lat="15.042392">
                <ele>122.224731</ele>
                <time>2009-02-01T03:45:26Z</time>
            </trkpt>
            <trkpt lon="100.872810" lat="15.042446">
                <ele>120.302124</ele>
                <time>2009-02-01T03:45:43Z</time>
            </trkpt>
            <trkpt lon="100.873241" lat="15.042478">
                <ele>119.340820</ele>
                <time>2009-02-01T03:45:58Z</time>
            </trkpt>
            <trkpt lon="100.873798" lat="15.042598">
                <ele>118.379395</ele>
                <time>2009-02-01T03:46:14Z</time>
            </trkpt>
            <trkpt lon="100.874291" lat="15.042711">
                <ele>116.937500</ele>
                <time>2009-02-01T03:46:29Z</time>
            </trkpt>
            <trkpt lon="100.874316" lat="15.042651">
                <ele>116.456787</ele>
                <time>2009-02-01T03:46:33Z</time>
            </trkpt>
            <trkpt lon="100.874397" lat="15.042329">
                <ele>113.572998</ele>
                <time>2009-02-01T03:46:50Z</time>
            </trkpt>
            <trkpt lon="100.874638" lat="15.042279">
                <ele>114.534180</ele>
                <time>2009-02-01T03:47:04Z</time>
            </trkpt>
            <trkpt lon="100.874741" lat="15.042275">
                <ele>115.976196</ele>
                <time>2009-02-01T03:47:08Z</time>
            </trkpt>
            <trkpt lon="100.875038" lat="15.042097">
                <ele>112.130981</ele>
                <time>2009-02-01T03:47:21Z</time>
            </trkpt>
            <trkpt lon="100.875376" lat="15.042057">
                <ele>113.092285</ele>
                <time>2009-02-01T03:47:34Z</time>
            </trkpt>
            <trkpt lon="100.875475" lat="15.042081">
                <ele>112.611572</ele>
                <time>2009-02-01T03:47:38Z</time>
            </trkpt>
            <trkpt lon="100.875743" lat="15.041817">
                <ele>111.169556</ele>
                <time>2009-02-01T03:47:52Z</time>
            </trkpt>
            <trkpt lon="100.875988" lat="15.041572">
                <ele>115.014893</ele>
                <time>2009-02-01T03:48:08Z</time>
            </trkpt>
            <trkpt lon="100.876202" lat="15.041393">
                <ele>112.611572</ele>
                <time>2009-02-01T03:48:21Z</time>
            </trkpt>
            <trkpt lon="100.876577" lat="15.041350">
                <ele>112.611572</ele>
                <time>2009-02-01T03:48:37Z</time>
            </trkpt>
            <trkpt lon="100.877019" lat="15.041445">
                <ele>111.650269</ele>
                <time>2009-02-01T03:48:55Z</time>
            </trkpt>
            <trkpt lon="100.877236" lat="15.041638">
                <ele>112.611572</ele>
                <time>2009-02-01T03:49:07Z</time>
            </trkpt>
            <trkpt lon="100.877397" lat="15.041883">
                <ele>112.130981</ele>
                <time>2009-02-01T03:49:25Z</time>
            </trkpt>
            <trkpt lon="100.877606" lat="15.042072">
                <ele>111.169556</ele>
                <time>2009-02-01T03:49:40Z</time>
            </trkpt>
            <trkpt lon="100.878029" lat="15.042286">
                <ele>108.766235</ele>
                <time>2009-02-01T03:49:55Z</time>
            </trkpt>
            <trkpt lon="100.878432" lat="15.042285">
                <ele>107.805054</ele>
                <time>2009-02-01T03:50:09Z</time>
            </trkpt>
            <trkpt lon="100.878916" lat="15.042292">
                <ele>107.805054</ele>
                <time>2009-02-01T03:50:27Z</time>
            </trkpt>
            <trkpt lon="100.879332" lat="15.042364">
                <ele>105.401733</ele>
                <time>2009-02-01T03:50:42Z</time>
            </trkpt>
            <trkpt lon="100.879538" lat="15.042419">
                <ele>105.401733</ele>
                <time>2009-02-01T03:50:48Z</time>
            </trkpt>
            <trkpt lon="100.880025" lat="15.042509">
                <ele>104.921020</ele>
                <time>2009-02-01T03:51:03Z</time>
            </trkpt>
            <trkpt lon="100.880488" lat="15.042556">
                <ele>103.479004</ele>
                <time>2009-02-01T03:51:18Z</time>
            </trkpt>
            <trkpt lon="100.880839" lat="15.042717">
                <ele>102.517700</ele>
                <time>2009-02-01T03:51:33Z</time>
            </trkpt>
            <trkpt lon="100.880865" lat="15.042731">
                <ele>102.517700</ele>
                <time>2009-02-01T03:51:34Z</time>
            </trkpt>
            <trkpt lon="100.881269" lat="15.042751">
                <ele>102.037109</ele>
                <time>2009-02-01T03:51:49Z</time>
            </trkpt>
            <trkpt lon="100.881401" lat="15.042782">
                <ele>101.075684</ele>
                <time>2009-02-01T03:52:00Z</time>
            </trkpt>
            <trkpt lon="100.881807" lat="15.042782">
                <ele>99.633789</ele>
                <time>2009-02-01T03:52:17Z</time>
            </trkpt>
            <trkpt lon="100.881964" lat="15.042876">
                <ele>99.633789</ele>
                <time>2009-02-01T03:52:24Z</time>
            </trkpt>
            <trkpt lon="100.882263" lat="15.043049">
                <ele>98.191895</ele>
                <time>2009-02-01T03:52:40Z</time>
            </trkpt>
            <trkpt lon="100.882295" lat="15.043065">
                <ele>98.191895</ele>
                <time>2009-02-01T03:52:42Z</time>
            </trkpt>
            <trkpt lon="100.882623" lat="15.043093">
                <ele>96.749878</ele>
                <time>2009-02-01T03:52:57Z</time>
            </trkpt>
            <trkpt lon="100.883021" lat="15.043085">
                <ele>96.269287</ele>
                <time>2009-02-01T03:53:14Z</time>
            </trkpt>
            <trkpt lon="100.883206" lat="15.043171">
                <ele>95.307739</ele>
                <time>2009-02-01T03:53:23Z</time>
            </trkpt>
            <trkpt lon="100.883254" lat="15.043127">
                <ele>95.307739</ele>
                <time>2009-02-01T03:53:26Z</time>
            </trkpt>
            <trkpt lon="100.883491" lat="15.042989">
                <ele>96.269287</ele>
                <time>2009-02-01T03:53:39Z</time>
            </trkpt>
            <trkpt lon="100.883574" lat="15.043031">
                <ele>95.788452</ele>
                <time>2009-02-01T03:53:43Z</time>
            </trkpt>
            <trkpt lon="100.884051" lat="15.043147">
                <ele>95.788452</ele>
                <time>2009-02-01T03:54:00Z</time>
            </trkpt>
            <trkpt lon="100.884518" lat="15.043112">
                <ele>92.423950</ele>
                <time>2009-02-01T03:54:18Z</time>
            </trkpt>
            <trkpt lon="100.884680" lat="15.043481">
                <ele>96.269287</ele>
                <time>2009-02-01T03:54:30Z</time>
            </trkpt>
            <trkpt lon="100.885063" lat="15.043945">
                <ele>95.307739</ele>
                <time>2009-02-01T03:54:46Z</time>
            </trkpt>
            <trkpt lon="100.885429" lat="15.044404">
                <ele>93.865845</ele>
                <time>2009-02-01T03:55:00Z</time>
            </trkpt>
            <trkpt lon="100.885705" lat="15.044443">
                <ele>92.904541</ele>
                <time>2009-02-01T03:55:07Z</time>
            </trkpt>
            <trkpt lon="100.885848" lat="15.044356">
                <ele>91.943237</ele>
                <time>2009-02-01T03:55:11Z</time>
            </trkpt>
            <trkpt lon="100.886124" lat="15.044498">
                <ele>90.981934</ele>
                <time>2009-02-01T03:55:19Z</time>
            </trkpt>
            <trkpt lon="100.886173" lat="15.044840">
                <ele>90.981934</ele>
                <time>2009-02-01T03:55:26Z</time>
            </trkpt>
            <trkpt lon="100.886250" lat="15.044980">
                <ele>90.981934</ele>
                <time>2009-02-01T03:55:29Z</time>
            </trkpt>
            <trkpt lon="100.886168" lat="15.045136">
                <ele>91.462524</ele>
                <time>2009-02-01T03:55:36Z</time>
            </trkpt>
            <trkpt lon="100.885417" lat="15.045346">
                <ele>89.059326</ele>
                <time>2009-02-01T03:55:53Z</time>
            </trkpt>
            <trkpt lon="100.885029" lat="15.045474">
                <ele>86.656006</ele>
                <time>2009-02-01T03:56:01Z</time>
            </trkpt>
            <trkpt lon="100.884006" lat="15.045779">
                <ele>86.175293</ele>
                <time>2009-02-01T03:56:23Z</time>
            </trkpt>
            <trkpt lon="100.883005" lat="15.046076">
                <ele>84.733398</ele>
                <time>2009-02-01T03:56:44Z</time>
            </trkpt>
            <trkpt lon="100.882400" lat="15.046288">
                <ele>84.733398</ele>
                <time>2009-02-01T03:56:59Z</time>
            </trkpt>
            <trkpt lon="100.881938" lat="15.046463">
                <ele>85.694580</ele>
                <time>2009-02-01T03:57:14Z</time>
            </trkpt>
            <trkpt lon="100.881369" lat="15.046651">
                <ele>85.694580</ele>
                <time>2009-02-01T03:57:29Z</time>
            </trkpt>
            <trkpt lon="100.880982" lat="15.046886">
                <ele>87.136597</ele>
                <time>2009-02-01T03:57:43Z</time>
            </trkpt>
            <trkpt lon="100.880769" lat="15.046717">
                <ele>91.462524</ele>
                <time>2009-02-01T03:57:56Z</time>
            </trkpt>
            <trkpt lon="100.880641" lat="15.046470">
                <ele>94.346558</ele>
                <time>2009-02-01T03:58:11Z</time>
            </trkpt>
            <trkpt lon="100.880610" lat="15.046431">
                <ele>95.307739</ele>
                <time>2009-02-01T03:58:14Z</time>
            </trkpt>
            <trkpt lon="100.880499" lat="15.046041">
                <ele>97.230469</ele>
                <time>2009-02-01T03:58:30Z</time>
            </trkpt>
            <trkpt lon="100.880342" lat="15.045690">
                <ele>98.672485</ele>
                <time>2009-02-01T03:58:41Z</time>
            </trkpt>
            <trkpt lon="100.879892" lat="15.045450">
                <ele>100.114502</ele>
                <time>2009-02-01T03:58:58Z</time>
            </trkpt>
            <trkpt lon="100.879443" lat="15.045239">
                <ele>102.517700</ele>
                <time>2009-02-01T03:59:16Z</time>
            </trkpt>
            <trkpt lon="100.878975" lat="15.045267">
                <ele>101.075684</ele>
                <time>2009-02-01T03:59:33Z</time>
            </trkpt>
            <trkpt lon="100.878727" lat="15.045210">
                <ele>102.517700</ele>
                <time>2009-02-01T03:59:45Z</time>
            </trkpt>
            <trkpt lon="100.878349" lat="15.045310">
                <ele>102.517700</ele>
                <time>2009-02-01T04:00:02Z</time>
            </trkpt>
            <trkpt lon="100.878067" lat="15.045573">
                <ele>102.037109</ele>
                <time>2009-02-01T04:00:16Z</time>
            </trkpt>
            <trkpt lon="100.877845" lat="15.045788">
                <ele>100.595093</ele>
                <time>2009-02-01T04:00:30Z</time>
            </trkpt>
            <trkpt lon="100.877815" lat="15.045819">
                <ele>100.595093</ele>
                <time>2009-02-01T04:00:33Z</time>
            </trkpt>
            <trkpt lon="100.877614" lat="15.045918">
                <ele>98.191895</ele>
                <time>2009-02-01T04:00:46Z</time>
            </trkpt>
            <trkpt lon="100.877598" lat="15.045925">
                <ele>98.191895</ele>
                <time>2009-02-01T04:00:47Z</time>
            </trkpt>
            <trkpt lon="100.877354" lat="15.045851">
                <ele>98.191895</ele>
                <time>2009-02-01T04:01:01Z</time>
            </trkpt>
            <trkpt lon="100.877241" lat="15.045798">
                <ele>99.153076</ele>
                <time>2009-02-01T04:01:14Z</time>
            </trkpt>
            <trkpt lon="100.877030" lat="15.045730">
                <ele>97.711182</ele>
                <time>2009-02-01T04:01:41Z</time>
            </trkpt>
            <trkpt lon="100.876854" lat="15.045732">
                <ele>99.633789</ele>
                <time>2009-02-01T04:01:53Z</time>
            </trkpt>
            <trkpt lon="100.876801" lat="15.045777">
                <ele>100.114502</ele>
                <time>2009-02-01T04:01:58Z</time>
            </trkpt>
            <trkpt lon="100.876738" lat="15.046045">
                <ele>97.711182</ele>
                <time>2009-02-01T04:02:11Z</time>
            </trkpt>
            <trkpt lon="100.876717" lat="15.046404">
                <ele>98.191895</ele>
                <time>2009-02-01T04:02:25Z</time>
            </trkpt>
            <trkpt lon="100.876668" lat="15.046616">
                <ele>100.595093</ele>
                <time>2009-02-01T04:02:39Z</time>
            </trkpt>
            <trkpt lon="100.876765" lat="15.046772">
                <ele>99.153076</ele>
                <time>2009-02-01T04:02:48Z</time>
            </trkpt>
            <trkpt lon="100.876693" lat="15.046904">
                <ele>100.114502</ele>
                <time>2009-02-01T04:03:00Z</time>
            </trkpt>
            <trkpt lon="100.876716" lat="15.046908">
                <ele>101.075684</ele>
                <time>2009-02-01T04:03:10Z</time>
            </trkpt>
            <trkpt lon="100.876705" lat="15.046923">
                <ele>100.114502</ele>
                <time>2009-02-01T04:03:20Z</time>
            </trkpt>
            <trkpt lon="100.876799" lat="15.047248">
                <ele>98.672485</ele>
                <time>2009-02-01T04:03:35Z</time>
            </trkpt>
            <trkpt lon="100.876743" lat="15.047558">
                <ele>99.153076</ele>
                <time>2009-02-01T04:03:48Z</time>
            </trkpt>
            <trkpt lon="100.876759" lat="15.047815">
                <ele>98.672485</ele>
                <time>2009-02-01T04:04:00Z</time>
            </trkpt>
            <trkpt lon="100.876752" lat="15.048012">
                <ele>99.633789</ele>
                <time>2009-02-01T04:04:14Z</time>
            </trkpt>
            <trkpt lon="100.876732" lat="15.048130">
                <ele>99.633789</ele>
                <time>2009-02-01T04:04:27Z</time>
            </trkpt>
            <trkpt lon="100.876727" lat="15.048189">
                <ele>99.153076</ele>
                <time>2009-02-01T04:04:43Z</time>
            </trkpt>
            <trkpt lon="100.876710" lat="15.048242">
                <ele>98.191895</ele>
                <time>2009-02-01T04:05:11Z</time>
            </trkpt>
            <trkpt lon="100.876685" lat="15.048366">
                <ele>97.230469</ele>
                <time>2009-02-01T04:05:26Z</time>
            </trkpt>
            <trkpt lon="100.876742" lat="15.048505">
                <ele>98.191895</ele>
                <time>2009-02-01T04:05:41Z</time>
            </trkpt>
            <trkpt lon="100.876766" lat="15.048590">
                <ele>98.191895</ele>
                <time>2009-02-01T04:05:48Z</time>
            </trkpt>
            <trkpt lon="100.876772" lat="15.048633">
                <ele>98.191895</ele>
                <time>2009-02-01T04:05:52Z</time>
            </trkpt>
            <trkpt lon="100.876841" lat="15.048772">
                <ele>97.711182</ele>
                <time>2009-02-01T04:06:06Z</time>
            </trkpt>
            <trkpt lon="100.876885" lat="15.048867">
                <ele>97.230469</ele>
                <time>2009-02-01T04:06:17Z</time>
            </trkpt>
            <trkpt lon="100.877057" lat="15.049151">
                <ele>94.827148</ele>
                <time>2009-02-01T04:06:34Z</time>
            </trkpt>
            <trkpt lon="100.877274" lat="15.049607">
                <ele>92.904541</ele>
                <time>2009-02-01T04:06:53Z</time>
            </trkpt>
            <trkpt lon="100.877301" lat="15.049649">
                <ele>93.865845</ele>
                <time>2009-02-01T04:06:56Z</time>
            </trkpt>
            <trkpt lon="100.877236" lat="15.049675">
                <ele>93.865845</ele>
                <time>2009-02-01T04:07:00Z</time>
            </trkpt>
            <trkpt lon="100.876831" lat="15.049751">
                <ele>94.346558</ele>
                <time>2009-02-01T04:07:15Z</time>
            </trkpt>
            <trkpt lon="100.876141" lat="15.049914">
                <ele>93.385132</ele>
                <time>2009-02-01T04:07:33Z</time>
            </trkpt>
            <trkpt lon="100.875254" lat="15.050126">
                <ele>93.385132</ele>
                <time>2009-02-01T04:07:54Z</time>
            </trkpt>
            <trkpt lon="100.875167" lat="15.050151">
                <ele>93.865845</ele>
                <time>2009-02-01T04:07:56Z</time>
            </trkpt>
            <trkpt lon="100.874308" lat="15.050357">
                <ele>93.385132</ele>
                <time>2009-02-01T04:08:13Z</time>
            </trkpt>
            <trkpt lon="100.873383" lat="15.050589">
                <ele>94.827148</ele>
                <time>2009-02-01T04:08:32Z</time>
            </trkpt>
            <trkpt lon="100.872397" lat="15.050815">
                <ele>96.269287</ele>
                <time>2009-02-01T04:08:54Z</time>
            </trkpt>
            <trkpt lon="100.871813" lat="15.050953">
                <ele>98.191895</ele>
                <time>2009-02-01T04:09:11Z</time>
            </trkpt>
            <trkpt lon="100.871245" lat="15.051089">
                <ele>98.672485</ele>
                <time>2009-02-01T04:09:28Z</time>
            </trkpt>
            <trkpt lon="100.870519" lat="15.051275">
                <ele>101.075684</ele>
                <time>2009-02-01T04:09:48Z</time>
            </trkpt>
            <trkpt lon="100.869792" lat="15.051446">
                <ele>102.517700</ele>
                <time>2009-02-01T04:10:10Z</time>
            </trkpt>
            <trkpt lon="100.869212" lat="15.051660">
                <ele>103.479004</ele>
                <time>2009-02-01T04:10:28Z</time>
            </trkpt>
            <trkpt lon="100.869102" lat="15.051768">
                <ele>103.479004</ele>
                <time>2009-02-01T04:10:31Z</time>
            </trkpt>
            <trkpt lon="100.868856" lat="15.052121">
                <ele>102.998291</ele>
                <time>2009-02-01T04:10:38Z</time>
            </trkpt>
            <trkpt lon="100.868889" lat="15.053074">
                <ele>102.517700</ele>
                <time>2009-02-01T04:10:50Z</time>
            </trkpt>
            <trkpt lon="100.868895" lat="15.054853">
                <ele>94.827148</ele>
                <time>2009-02-01T04:11:10Z</time>
            </trkpt>
            <trkpt lon="100.868810" lat="15.055892">
                <ele>93.385132</ele>
                <time>2009-02-01T04:11:22Z</time>
            </trkpt>
            <trkpt lon="100.868234" lat="15.056688">
                <ele>94.346558</ele>
                <time>2009-02-01T04:11:36Z</time>
            </trkpt>
            <trkpt lon="100.867742" lat="15.057311">
                <ele>94.827148</ele>
                <time>2009-02-01T04:11:49Z</time>
            </trkpt>
            <trkpt lon="100.867117" lat="15.057875">
                <ele>89.539917</ele>
                <time>2009-02-01T04:12:00Z</time>
            </trkpt>
            <trkpt lon="100.866138" lat="15.058872">
                <ele>87.617188</ele>
                <time>2009-02-01T04:12:18Z</time>
            </trkpt>
            <trkpt lon="100.865100" lat="15.059890">
                <ele>86.175293</ele>
                <time>2009-02-01T04:12:38Z</time>
            </trkpt>
            <trkpt lon="100.864249" lat="15.060568">
                <ele>84.252685</ele>
                <time>2009-02-01T04:12:54Z</time>
            </trkpt>
            <trkpt lon="100.863056" lat="15.061176">
                <ele>82.330078</ele>
                <time>2009-02-01T04:13:14Z</time>
            </trkpt>
            <trkpt lon="100.861790" lat="15.061756">
                <ele>80.407471</ele>
                <time>2009-02-01T04:13:35Z</time>
            </trkpt>
            <trkpt lon="100.860470" lat="15.062064">
                <ele>77.523438</ele>
                <time>2009-02-01T04:13:54Z</time>
            </trkpt>
            <trkpt lon="100.859206" lat="15.062068">
                <ele>75.600830</ele>
                <time>2009-02-01T04:14:13Z</time>
            </trkpt>
            <trkpt lon="100.858392" lat="15.062064">
                <ele>73.197632</ele>
                <time>2009-02-01T04:14:26Z</time>
            </trkpt>
            <trkpt lon="100.857455" lat="15.062074">
                <ele>74.158813</ele>
                <time>2009-02-01T04:14:41Z</time>
            </trkpt>
            <trkpt lon="100.857343" lat="15.062054">
                <ele>75.120239</ele>
                <time>2009-02-01T04:14:43Z</time>
            </trkpt>
            <trkpt lon="100.856923" lat="15.062060">
                <ele>75.600830</ele>
                <time>2009-02-01T04:14:51Z</time>
            </trkpt>
            <trkpt lon="100.856597" lat="15.062170">
                <ele>75.600830</ele>
                <time>2009-02-01T04:14:58Z</time>
            </trkpt>
            <trkpt lon="100.856494" lat="15.062254">
                <ele>75.120239</ele>
                <time>2009-02-01T04:15:05Z</time>
            </trkpt>
            <trkpt lon="100.856647" lat="15.062648">
                <ele>75.120239</ele>
                <time>2009-02-01T04:15:17Z</time>
            </trkpt>
            <trkpt lon="100.856837" lat="15.062857">
                <ele>75.600830</ele>
                <time>2009-02-01T04:15:24Z</time>
            </trkpt>
            <trkpt lon="100.857125" lat="15.063500">
                <ele>76.562134</ele>
                <time>2009-02-01T04:15:42Z</time>
            </trkpt>
            <trkpt lon="100.857323" lat="15.063938">
                <ele>75.600830</ele>
                <time>2009-02-01T04:15:53Z</time>
            </trkpt>
            <trkpt lon="100.857376" lat="15.064159">
                <ele>75.600830</ele>
                <time>2009-02-01T04:15:58Z</time>
            </trkpt>
            <trkpt lon="100.857120" lat="15.064853">
                <ele>75.600830</ele>
                <time>2009-02-01T04:16:14Z</time>
            </trkpt>
            <trkpt lon="100.857043" lat="15.064984">
                <ele>75.600830</ele>
                <time>2009-02-01T04:16:17Z</time>
            </trkpt>
            <trkpt lon="100.856980" lat="15.065128">
                <ele>75.600830</ele>
                <time>2009-02-01T04:16:20Z</time>
            </trkpt>
            <trkpt lon="100.856741" lat="15.065759">
                <ele>76.081421</ele>
                <time>2009-02-01T04:16:33Z</time>
            </trkpt>
            <trkpt lon="100.856829" lat="15.066390">
                <ele>76.081421</ele>
                <time>2009-02-01T04:16:46Z</time>
            </trkpt>
            <trkpt lon="100.856847" lat="15.066380">
                <ele>76.562134</ele>
                <time>2009-02-01T04:16:51Z</time>
            </trkpt>
            <trkpt lon="100.856527" lat="15.066272">
                <ele>75.600830</ele>
                <time>2009-02-01T04:17:04Z</time>
            </trkpt>
            <trkpt lon="100.856485" lat="15.066260">
                <ele>75.600830</ele>
                <time>2009-02-01T04:17:05Z</time>
            </trkpt>
            <trkpt lon="100.856344" lat="15.066154">
                <ele>75.600830</ele>
                <time>2009-02-01T04:17:09Z</time>
            </trkpt>
            <trkpt lon="100.856197" lat="15.065827">
                <ele>74.639526</ele>
                <time>2009-02-01T04:17:16Z</time>
            </trkpt>
            <trkpt lon="100.856196" lat="15.065720">
                <ele>74.639526</ele>
                <time>2009-02-01T04:17:18Z</time>
            </trkpt>
            <trkpt lon="100.855976" lat="15.065481">
                <ele>74.158813</ele>
                <time>2009-02-01T04:17:25Z</time>
            </trkpt>
            <trkpt lon="100.855829" lat="15.065449">
                <ele>74.158813</ele>
                <time>2009-02-01T04:17:28Z</time>
            </trkpt>
            <trkpt lon="100.855487" lat="15.065048">
                <ele>73.678223</ele>
                <time>2009-02-01T04:17:39Z</time>
            </trkpt>
            <trkpt lon="100.855463" lat="15.064972">
                <ele>74.158813</ele>
                <time>2009-02-01T04:17:43Z</time>
            </trkpt>
            <trkpt lon="100.855455" lat="15.064876">
                <ele>72.236206</ele>
                <time>2009-02-01T04:17:56Z</time>
            </trkpt>
            <trkpt lon="100.855419" lat="15.064774">
                <ele>72.236206</ele>
                <time>2009-02-01T04:18:10Z</time>
            </trkpt>
            <trkpt lon="100.855410" lat="15.064776">
                <ele>79.926636</ele>
                <time>2009-02-01T04:19:05Z</time>
            </trkpt>
            <trkpt lon="100.855398" lat="15.064768">
                <ele>66.948975</ele>
                <time>2009-02-01T04:31:57Z</time>
            </trkpt>
            <trkpt lon="100.855347" lat="15.064433">
                <ele>67.429688</ele>
                <time>2009-02-01T04:32:10Z</time>
            </trkpt>
            <trkpt lon="100.855163" lat="15.063911">
                <ele>70.794190</ele>
                <time>2009-02-01T04:32:25Z</time>
            </trkpt>
            <trkpt lon="100.854888" lat="15.063475">
                <ele>73.197632</ele>
                <time>2009-02-01T04:32:39Z</time>
            </trkpt>
            <trkpt lon="100.853867" lat="15.063532">
                <ele>70.794190</ele>
                <time>2009-02-01T04:33:04Z</time>
            </trkpt>
            <trkpt lon="100.853538" lat="15.063636">
                <ele>70.313477</ele>
                <time>2009-02-01T04:33:14Z</time>
            </trkpt>
            <trkpt lon="100.852974" lat="15.063738">
                <ele>69.352295</ele>
                <time>2009-02-01T04:33:26Z</time>
            </trkpt>
            <trkpt lon="100.852931" lat="15.063751">
                <ele>69.832886</ele>
                <time>2009-02-01T04:33:38Z</time>
            </trkpt>
            <trkpt lon="100.852879" lat="15.063754">
                <ele>71.274902</ele>
                <time>2009-02-01T04:33:59Z</time>
            </trkpt>
            <trkpt lon="100.852506" lat="15.063847">
                <ele>70.313477</ele>
                <time>2009-02-01T04:34:10Z</time>
            </trkpt>
            <trkpt lon="100.851441" lat="15.064018">
                <ele>67.910278</ele>
                <time>2009-02-01T04:34:31Z</time>
            </trkpt>
            <trkpt lon="100.851174" lat="15.064068">
                <ele>67.910278</ele>
                <time>2009-02-01T04:34:36Z</time>
            </trkpt>
            <trkpt lon="100.850253" lat="15.064250">
                <ele>67.429688</ele>
                <time>2009-02-01T04:34:54Z</time>
            </trkpt>
            <trkpt lon="100.849275" lat="15.064519">
                <ele>66.948975</ele>
                <time>2009-02-01T04:35:12Z</time>
            </trkpt>
            <trkpt lon="100.848184" lat="15.064749">
                <ele>66.948975</ele>
                <time>2009-02-01T04:35:31Z</time>
            </trkpt>
            <trkpt lon="100.846867" lat="15.065032">
                <ele>66.468262</ele>
                <time>2009-02-01T04:35:53Z</time>
            </trkpt>
            <trkpt lon="100.845763" lat="15.065291">
                <ele>65.026367</ele>
                <time>2009-02-01T04:36:13Z</time>
            </trkpt>
            <trkpt lon="100.845603" lat="15.065353">
                <ele>64.545654</ele>
                <time>2009-02-01T04:36:16Z</time>
            </trkpt>
            <trkpt lon="100.845461" lat="15.065447">
                <ele>64.545654</ele>
                <time>2009-02-01T04:36:19Z</time>
            </trkpt>
            <trkpt lon="100.845351" lat="15.065562">
                <ele>64.545654</ele>
                <time>2009-02-01T04:36:22Z</time>
            </trkpt>
            <trkpt lon="100.845250" lat="15.065695">
                <ele>64.065063</ele>
                <time>2009-02-01T04:36:26Z</time>
            </trkpt>
            <trkpt lon="100.845132" lat="15.065598">
                <ele>63.584351</ele>
                <time>2009-02-01T04:36:32Z</time>
            </trkpt>
            <trkpt lon="100.844909" lat="15.064900">
                <ele>65.026367</ele>
                <time>2009-02-01T04:36:49Z</time>
            </trkpt>
            <trkpt lon="100.844853" lat="15.064181">
                <ele>66.468262</ele>
                <time>2009-02-01T04:37:05Z</time>
            </trkpt>
            <trkpt lon="100.844880" lat="15.063916">
                <ele>66.948975</ele>
                <time>2009-02-01T04:37:16Z</time>
            </trkpt>
            <trkpt lon="100.844880" lat="15.063891">
                <ele>65.987671</ele>
                <time>2009-02-01T04:37:43Z</time>
            </trkpt>
            <trkpt lon="100.844934" lat="15.063502">
                <ele>66.468262</ele>
                <time>2009-02-01T04:37:58Z</time>
            </trkpt>
            <trkpt lon="100.844984" lat="15.063086">
                <ele>69.352295</ele>
                <time>2009-02-01T04:38:11Z</time>
            </trkpt>
            <trkpt lon="100.844932" lat="15.062676">
                <ele>72.716919</ele>
                <time>2009-02-01T04:38:27Z</time>
            </trkpt>
            <trkpt lon="100.844839" lat="15.062118">
                <ele>74.158813</ele>
                <time>2009-02-01T04:38:45Z</time>
            </trkpt>
            <trkpt lon="100.844755" lat="15.061641">
                <ele>73.197632</ele>
                <time>2009-02-01T04:38:57Z</time>
            </trkpt>
            <trkpt lon="100.844746" lat="15.060798">
                <ele>72.236206</ele>
                <time>2009-02-01T04:39:11Z</time>
            </trkpt>
            <trkpt lon="100.844667" lat="15.059851">
                <ele>72.716919</ele>
                <time>2009-02-01T04:39:30Z</time>
            </trkpt>
            <trkpt lon="100.844551" lat="15.058859">
                <ele>72.236206</ele>
                <time>2009-02-01T04:39:51Z</time>
            </trkpt>
            <trkpt lon="100.844350" lat="15.058776">
                <ele>70.794190</ele>
                <time>2009-02-01T04:39:59Z</time>
            </trkpt>
            <trkpt lon="100.843718" lat="15.058817">
                <ele>68.871582</ele>
                <time>2009-02-01T04:40:14Z</time>
            </trkpt>
            <trkpt lon="100.842892" lat="15.058835">
                <ele>65.987671</ele>
                <time>2009-02-01T04:40:32Z</time>
            </trkpt>
            <trkpt lon="100.842271" lat="15.058833">
                <ele>64.545654</ele>
                <time>2009-02-01T04:40:47Z</time>
            </trkpt>
            <trkpt lon="100.841976" lat="15.058745">
                <ele>64.065063</ele>
                <time>2009-02-01T04:40:58Z</time>
            </trkpt>
            <trkpt lon="100.841851" lat="15.058752">
                <ele>64.065063</ele>
                <time>2009-02-01T04:41:02Z</time>
            </trkpt>
            <trkpt lon="100.841458" lat="15.058698">
                <ele>63.584351</ele>
                <time>2009-02-01T04:41:16Z</time>
            </trkpt>
            <trkpt lon="100.840927" lat="15.058417">
                <ele>63.103638</ele>
                <time>2009-02-01T04:41:32Z</time>
            </trkpt>
            <trkpt lon="100.840478" lat="15.058282">
                <ele>62.622925</ele>
                <time>2009-02-01T04:41:46Z</time>
            </trkpt>
            <trkpt lon="100.839954" lat="15.057986">
                <ele>62.142334</ele>
                <time>2009-02-01T04:42:01Z</time>
            </trkpt>
            <trkpt lon="100.839325" lat="15.057957">
                <ele>61.181030</ele>
                <time>2009-02-01T04:42:15Z</time>
            </trkpt>
            <trkpt lon="100.838736" lat="15.057921">
                <ele>58.777710</ele>
                <time>2009-02-01T04:42:31Z</time>
            </trkpt>
            <trkpt lon="100.838040" lat="15.057862">
                <ele>55.893799</ele>
                <time>2009-02-01T04:42:48Z</time>
            </trkpt>
            <trkpt lon="100.837989" lat="15.057822">
                <ele>56.374512</ele>
                <time>2009-02-01T04:42:50Z</time>
            </trkpt>
            <trkpt lon="100.837989" lat="15.057301">
                <ele>58.297119</ele>
                <time>2009-02-01T04:43:03Z</time>
            </trkpt>
            <trkpt lon="100.837902" lat="15.057153">
                <ele>58.777710</ele>
                <time>2009-02-01T04:43:07Z</time>
            </trkpt>
            <trkpt lon="100.837553" lat="15.056828">
                <ele>61.181030</ele>
                <time>2009-02-01T04:43:17Z</time>
            </trkpt>
            <trkpt lon="100.837027" lat="15.056684">
                <ele>59.258423</ele>
                <time>2009-02-01T04:43:29Z</time>
            </trkpt>
            <trkpt lon="100.837094" lat="15.056322">
                <ele>61.181030</ele>
                <time>2009-02-01T04:43:42Z</time>
            </trkpt>
            <trkpt lon="100.837343" lat="15.055648">
                <ele>63.584351</ele>
                <time>2009-02-01T04:44:00Z</time>
            </trkpt>
            <trkpt lon="100.837405" lat="15.054871">
                <ele>62.142334</ele>
                <time>2009-02-01T04:44:17Z</time>
            </trkpt>
            <trkpt lon="100.837330" lat="15.054498">
                <ele>62.622925</ele>
                <time>2009-02-01T04:44:25Z</time>
            </trkpt>
            <trkpt lon="100.837397" lat="15.054256">
                <ele>62.622925</ele>
                <time>2009-02-01T04:44:30Z</time>
            </trkpt>
            <trkpt lon="100.837660" lat="15.053758">
                <ele>62.622925</ele>
                <time>2009-02-01T04:44:41Z</time>
            </trkpt>
            <trkpt lon="100.837901" lat="15.053283">
                <ele>63.584351</ele>
                <time>2009-02-01T04:44:52Z</time>
            </trkpt>
            <trkpt lon="100.838321" lat="15.052638">
                <ele>62.622925</ele>
                <time>2009-02-01T04:45:08Z</time>
            </trkpt>
            <trkpt lon="100.838374" lat="15.052508">
                <ele>62.142334</ele>
                <time>2009-02-01T04:45:11Z</time>
            </trkpt>
            <trkpt lon="100.838327" lat="15.052300">
                <ele>62.622925</ele>
                <time>2009-02-01T04:45:17Z</time>
            </trkpt>
            <trkpt lon="100.838269" lat="15.052090">
                <ele>63.103638</ele>
                <time>2009-02-01T04:45:23Z</time>
            </trkpt>
            <trkpt lon="100.838278" lat="15.051833">
                <ele>63.584351</ele>
                <time>2009-02-01T04:45:29Z</time>
            </trkpt>
            <trkpt lon="100.838156" lat="15.051616">
                <ele>64.065063</ele>
                <time>2009-02-01T04:45:35Z</time>
            </trkpt>
            <trkpt lon="100.838064" lat="15.051519">
                <ele>64.545654</ele>
                <time>2009-02-01T04:45:38Z</time>
            </trkpt>
            <trkpt lon="100.837755" lat="15.050751">
                <ele>65.987671</ele>
                <time>2009-02-01T04:45:56Z</time>
            </trkpt>
            <trkpt lon="100.837731" lat="15.050662">
                <ele>66.468262</ele>
                <time>2009-02-01T04:45:58Z</time>
            </trkpt>
            <trkpt lon="100.837573" lat="15.050437">
                <ele>66.468262</ele>
                <time>2009-02-01T04:46:04Z</time>
            </trkpt>
            <trkpt lon="100.837097" lat="15.050046">
                <ele>66.468262</ele>
                <time>2009-02-01T04:46:16Z</time>
            </trkpt>
            <trkpt lon="100.836374" lat="15.049397">
                <ele>68.390869</ele>
                <time>2009-02-01T04:46:36Z</time>
            </trkpt>
            <trkpt lon="100.835850" lat="15.048847">
                <ele>70.313477</ele>
                <time>2009-02-01T04:46:53Z</time>
            </trkpt>
            <trkpt lon="100.835321" lat="15.048306">
                <ele>70.794190</ele>
                <time>2009-02-01T04:47:13Z</time>
            </trkpt>
            <trkpt lon="100.835067" lat="15.048093">
                <ele>71.755493</ele>
                <time>2009-02-01T04:47:22Z</time>
            </trkpt>
            <trkpt lon="100.835145" lat="15.047931">
                <ele>71.274902</ele>
                <time>2009-02-01T04:47:27Z</time>
            </trkpt>
            <trkpt lon="100.835814" lat="15.047090">
                <ele>69.832886</ele>
                <time>2009-02-01T04:47:48Z</time>
            </trkpt>
            <trkpt lon="100.836578" lat="15.046104">
                <ele>68.390869</ele>
                <time>2009-02-01T04:48:10Z</time>
            </trkpt>
            <trkpt lon="100.837399" lat="15.045055">
                <ele>67.910278</ele>
                <time>2009-02-01T04:48:32Z</time>
            </trkpt>
            <trkpt lon="100.838265" lat="15.044230">
                <ele>67.910278</ele>
                <time>2009-02-01T04:48:54Z</time>
            </trkpt>
            <trkpt lon="100.839088" lat="15.043529">
                <ele>68.390869</ele>
                <time>2009-02-01T04:49:16Z</time>
            </trkpt>
            <trkpt lon="100.839785" lat="15.042807">
                <ele>68.871582</ele>
                <time>2009-02-01T04:49:37Z</time>
            </trkpt>
            <trkpt lon="100.840383" lat="15.041950">
                <ele>69.832886</ele>
                <time>2009-02-01T04:49:58Z</time>
            </trkpt>
            <trkpt lon="100.840955" lat="15.041082">
                <ele>70.794190</ele>
                <time>2009-02-01T04:50:19Z</time>
            </trkpt>
            <trkpt lon="100.841352" lat="15.040266">
                <ele>70.313477</ele>
                <time>2009-02-01T04:50:37Z</time>
            </trkpt>
            <trkpt lon="100.841642" lat="15.039318">
                <ele>69.832886</ele>
                <time>2009-02-01T04:50:56Z</time>
            </trkpt>
            <trkpt lon="100.841830" lat="15.038284">
                <ele>69.352295</ele>
                <time>2009-02-01T04:51:16Z</time>
            </trkpt>
            <trkpt lon="100.842015" lat="15.037663">
                <ele>69.352295</ele>
                <time>2009-02-01T04:51:29Z</time>
            </trkpt>
            <trkpt lon="100.842588" lat="15.037028">
                <ele>69.832886</ele>
                <time>2009-02-01T04:51:46Z</time>
            </trkpt>
            <trkpt lon="100.843298" lat="15.036199">
                <ele>70.794190</ele>
                <time>2009-02-01T04:52:07Z</time>
            </trkpt>
            <trkpt lon="100.843684" lat="15.035493">
                <ele>71.755493</ele>
                <time>2009-02-01T04:52:23Z</time>
            </trkpt>
            <trkpt lon="100.844099" lat="15.034758">
                <ele>72.716919</ele>
                <time>2009-02-01T04:52:42Z</time>
            </trkpt>
            <trkpt lon="100.844544" lat="15.033882">
                <ele>72.236206</ele>
                <time>2009-02-01T04:53:03Z</time>
            </trkpt>
            <trkpt lon="100.844923" lat="15.033186">
                <ele>72.716919</ele>
                <time>2009-02-01T04:53:19Z</time>
            </trkpt>
            <trkpt lon="100.845277" lat="15.032495">
                <ele>73.197632</ele>
                <time>2009-02-01T04:53:36Z</time>
            </trkpt>
            <trkpt lon="100.845453" lat="15.032189">
                <ele>73.197632</ele>
                <time>2009-02-01T04:53:45Z</time>
            </trkpt>
            <trkpt lon="100.845777" lat="15.031924">
                <ele>73.197632</ele>
                <time>2009-02-01T04:53:54Z</time>
            </trkpt>
            <trkpt lon="100.846417" lat="15.031482">
                <ele>73.197632</ele>
                <time>2009-02-01T04:54:10Z</time>
            </trkpt>
            <trkpt lon="100.846541" lat="15.031403">
                <ele>72.716919</ele>
                <time>2009-02-01T04:54:13Z</time>
            </trkpt>
            <trkpt lon="100.846664" lat="15.031282">
                <ele>72.716919</ele>
                <time>2009-02-01T04:54:17Z</time>
            </trkpt>
            <trkpt lon="100.846759" lat="15.031057">
                <ele>73.197632</ele>
                <time>2009-02-01T04:54:23Z</time>
            </trkpt>
            <trkpt lon="100.846768" lat="15.030891">
                <ele>73.197632</ele>
                <time>2009-02-01T04:54:27Z</time>
            </trkpt>
            <trkpt lon="100.846738" lat="15.030720">
                <ele>73.197632</ele>
                <time>2009-02-01T04:54:31Z</time>
            </trkpt>
            <trkpt lon="100.846563" lat="15.029894">
                <ele>73.197632</ele>
                <time>2009-02-01T04:54:50Z</time>
            </trkpt>
            <trkpt lon="100.846546" lat="15.029857">
                <ele>73.197632</ele>
                <time>2009-02-01T04:54:51Z</time>
            </trkpt>
            <trkpt lon="100.846334" lat="15.029248">
                <ele>74.639526</ele>
                <time>2009-02-01T04:55:08Z</time>
            </trkpt>
            <trkpt lon="100.846239" lat="15.028613">
                <ele>75.120239</ele>
                <time>2009-02-01T04:55:25Z</time>
            </trkpt>
            <trkpt lon="100.846012" lat="15.027795">
                <ele>76.081421</ele>
                <time>2009-02-01T04:55:46Z</time>
            </trkpt>
            <trkpt lon="100.845840" lat="15.027045">
                <ele>77.042847</ele>
                <time>2009-02-01T04:56:05Z</time>
            </trkpt>
            <trkpt lon="100.845619" lat="15.026090">
                <ele>77.042847</ele>
                <time>2009-02-01T04:56:28Z</time>
            </trkpt>
            <trkpt lon="100.845431" lat="15.025196">
                <ele>78.004028</ele>
                <time>2009-02-01T04:56:47Z</time>
            </trkpt>
            <trkpt lon="100.845231" lat="15.024327">
                <ele>78.004028</ele>
                <time>2009-02-01T04:57:06Z</time>
            </trkpt>
            <trkpt lon="100.845062" lat="15.023599">
                <ele>78.484741</ele>
                <time>2009-02-01T04:57:26Z</time>
            </trkpt>
            <trkpt lon="100.844954" lat="15.023239">
                <ele>79.446045</ele>
                <time>2009-02-01T04:57:36Z</time>
            </trkpt>
            <trkpt lon="100.844885" lat="15.022720">
                <ele>81.368774</ele>
                <time>2009-02-01T04:57:51Z</time>
            </trkpt>
            <trkpt lon="100.844796" lat="15.022082">
                <ele>83.291382</ele>
                <time>2009-02-01T04:58:10Z</time>
            </trkpt>
            <trkpt lon="100.844761" lat="15.021547">
                <ele>85.694580</ele>
                <time>2009-02-01T04:58:27Z</time>
            </trkpt>
            <trkpt lon="100.844634" lat="15.020954">
                <ele>87.136597</ele>
                <time>2009-02-01T04:58:44Z</time>
            </trkpt>
            <trkpt lon="100.844463" lat="15.020551">
                <ele>88.578735</ele>
                <time>2009-02-01T04:58:57Z</time>
            </trkpt>
            <trkpt lon="100.844542" lat="15.020464">
                <ele>88.098022</ele>
                <time>2009-02-01T04:59:01Z</time>
            </trkpt>
            <trkpt lon="100.845083" lat="15.020124">
                <ele>88.098022</ele>
                <time>2009-02-01T04:59:17Z</time>
            </trkpt>
            <trkpt lon="100.845100" lat="15.019701">
                <ele>88.098022</ele>
                <time>2009-02-01T04:59:29Z</time>
            </trkpt>
            <trkpt lon="100.845041" lat="15.019457">
                <ele>90.020630</ele>
                <time>2009-02-01T04:59:41Z</time>
            </trkpt>
            <trkpt lon="100.844865" lat="15.019229">
                <ele>96.749878</ele>
                <time>2009-02-01T05:00:00Z</time>
            </trkpt>
            <trkpt lon="100.844784" lat="15.019103">
                <ele>99.153076</ele>
                <time>2009-02-01T05:00:11Z</time>
            </trkpt>
            <trkpt lon="100.844418" lat="15.018884">
                <ele>98.672485</ele>
                <time>2009-02-01T05:00:26Z</time>
            </trkpt>
            <trkpt lon="100.843921" lat="15.018510">
                <ele>98.672485</ele>
                <time>2009-02-01T05:00:43Z</time>
            </trkpt>
            <trkpt lon="100.843090" lat="15.018062">
                <ele>100.595093</ele>
                <time>2009-02-01T05:01:03Z</time>
            </trkpt>
            <trkpt lon="100.842827" lat="15.017855">
                <ele>103.479004</ele>
                <time>2009-02-01T05:01:19Z</time>
            </trkpt>
            <trkpt lon="100.842426" lat="15.017879">
                <ele>105.401733</ele>
                <time>2009-02-01T05:01:38Z</time>
            </trkpt>
            <trkpt lon="100.841964" lat="15.018082">
                <ele>105.882446</ele>
                <time>2009-02-01T05:01:58Z</time>
            </trkpt>
            <trkpt lon="100.841453" lat="15.018042">
                <ele>108.766235</ele>
                <time>2009-02-01T05:02:17Z</time>
            </trkpt>
            <trkpt lon="100.840995" lat="15.017917">
                <ele>110.688843</ele>
                <time>2009-02-01T05:02:35Z</time>
            </trkpt>
            <trkpt lon="100.840517" lat="15.017594">
                <ele>113.572998</ele>
                <time>2009-02-01T05:02:57Z</time>
            </trkpt>
            <trkpt lon="100.840257" lat="15.017211">
                <ele>115.495605</ele>
                <time>2009-02-01T05:03:14Z</time>
            </trkpt>
            <trkpt lon="100.840034" lat="15.016796">
                <ele>119.340820</ele>
                <time>2009-02-01T05:03:33Z</time>
            </trkpt>
            <trkpt lon="100.839946" lat="15.016386">
                <ele>121.263550</ele>
                <time>2009-02-01T05:03:50Z</time>
            </trkpt>
            <trkpt lon="100.839859" lat="15.015927">
                <ele>121.263550</ele>
                <time>2009-02-01T05:04:10Z</time>
            </trkpt>
            <trkpt lon="100.839937" lat="15.015550">
                <ele>124.147339</ele>
                <time>2009-02-01T05:04:26Z</time>
            </trkpt>
            <trkpt lon="100.840138" lat="15.014941">
                <ele>125.589355</ele>
                <time>2009-02-01T05:04:49Z</time>
            </trkpt>
            <trkpt lon="100.840511" lat="15.014449">
                <ele>127.511963</ele>
                <time>2009-02-01T05:05:10Z</time>
            </trkpt>
            <trkpt lon="100.841108" lat="15.014066">
                <ele>125.589355</ele>
                <time>2009-02-01T05:05:25Z</time>
            </trkpt>
            <trkpt lon="100.841715" lat="15.013521">
                <ele>125.589355</ele>
                <time>2009-02-01T05:05:40Z</time>
            </trkpt>
            <trkpt lon="100.842590" lat="15.012956">
                <ele>121.744141</ele>
                <time>2009-02-01T05:05:56Z</time>
            </trkpt>
            <trkpt lon="100.843480" lat="15.012391">
                <ele>119.340820</ele>
                <time>2009-02-01T05:06:11Z</time>
            </trkpt>
            <trkpt lon="100.844672" lat="15.012071">
                <ele>115.495605</ele>
                <time>2009-02-01T05:06:28Z</time>
            </trkpt>
            <trkpt lon="100.844744" lat="15.012052">
                <ele>115.976196</ele>
                <time>2009-02-01T05:06:29Z</time>
            </trkpt>
            <trkpt lon="100.844931" lat="15.011851">
                <ele>116.937500</ele>
                <time>2009-02-01T05:06:33Z</time>
            </trkpt>
            <trkpt lon="100.845274" lat="15.011257">
                <ele>119.340820</ele>
                <time>2009-02-01T05:06:48Z</time>
            </trkpt>
            <trkpt lon="100.845761" lat="15.010616">
                <ele>120.782837</ele>
                <time>2009-02-01T05:07:07Z</time>
            </trkpt>
            <trkpt lon="100.846523" lat="15.009831">
                <ele>119.340820</ele>
                <time>2009-02-01T05:07:29Z</time>
            </trkpt>
            <trkpt lon="100.847271" lat="15.009035">
                <ele>113.092285</ele>
                <time>2009-02-01T05:07:46Z</time>
            </trkpt>
            <trkpt lon="100.847457" lat="15.008867">
                <ele>116.937500</ele>
                <time>2009-02-01T05:07:53Z</time>
            </trkpt>
            <trkpt lon="100.847771" lat="15.008818">
                <ele>117.898804</ele>
                <time>2009-02-01T05:08:07Z</time>
            </trkpt>
            <trkpt lon="100.847999" lat="15.008633">
                <ele>120.782837</ele>
                <time>2009-02-01T05:08:22Z</time>
            </trkpt>
            <trkpt lon="100.848000" lat="15.008617">
                <ele>120.782837</ele>
                <time>2009-02-01T05:08:23Z</time>
            </trkpt>
            <trkpt lon="100.847853" lat="15.008433">
                <ele>123.186157</ele>
                <time>2009-02-01T05:08:38Z</time>
            </trkpt>
            <trkpt lon="100.847861" lat="15.008168">
                <ele>124.147339</ele>
                <time>2009-02-01T05:08:50Z</time>
            </trkpt>
            <trkpt lon="100.848049" lat="15.007777">
                <ele>127.031372</ele>
                <time>2009-02-01T05:09:06Z</time>
            </trkpt>
            <trkpt lon="100.848176" lat="15.007328">
                <ele>129.434692</ele>
                <time>2009-02-01T05:09:23Z</time>
            </trkpt>
            <trkpt lon="100.848279" lat="15.007308">
                <ele>129.915283</ele>
                <time>2009-02-01T05:09:27Z</time>
            </trkpt>
            <trkpt lon="100.848370" lat="15.007331">
                <ele>129.915283</ele>
                <time>2009-02-01T05:09:31Z</time>
            </trkpt>
            <trkpt lon="100.848432" lat="15.007465">
                <ele>130.395996</ele>
                <time>2009-02-01T05:09:39Z</time>
            </trkpt>
            <trkpt lon="100.848510" lat="15.007613">
                <ele>130.876709</ele>
                <time>2009-02-01T05:09:51Z</time>
            </trkpt>
        </trkseg>
    </trk>
</gpx>